Time;durP1;ratioP1;P1;durP2;ratioP2;P2;SDS_P1;SDS_P2;PMS_P1;PMS_P2;Temp;Humidity;BMP_temperature;BMP_pressure;BME280_temperature;BME280_humidity;BME280_pressure;Samples;Min_cycle;Max_cycle;Signal;HPM_P1;HPM_P2
2023/04/10 00:00:52;;;;;;;2.60;1.42;;;;;;;20.39;49.39;99723.31;4975452;28;20031;-66
2023/04/10 00:03:18;;;;;;;4.43;1.50;;;;;;;20.38;49.44;99726.91;4975582;28;20536;-66
2023/04/10 00:05:43;;;;;;;2.58;1.30;;;;;;;20.39;49.42;99733.06;4975455;28;20109;-67
2023/04/10 00:08:09;;;;;;;3.10;1.65;;;;;;;20.37;49.49;99730.50;4975403;28;20034;-66
2023/04/10 00:10:34;;;;;;;1.90;1.23;;;;;;;20.36;49.29;99728.78;4974928;28;20050;-67
2023/04/10 00:13:03;;;;;;;1.88;1.05;;;;;;;20.34;49.45;99735.94;4975310;28;20062;-66
2023/04/10 00:15:29;;;;;;;2.05;1.17;;;;;;;20.35;49.42;99732.34;4975160;28;20031;-66
2023/04/10 00:17:54;;;;;;;5.15;1.00;;;;;;;20.33;49.40;99728.94;4975058;28;20038;-66
2023/04/10 00:20:21;;;;;;;2.53;1.20;;;;;;;20.32;49.25;99729.88;4975178;28;20106;-65
2023/04/10 00:22:47;;;;;;;2.58;1.45;;;;;;;20.33;49.25;99733.41;4974993;28;20577;-67
2023/04/10 00:25:13;;;;;;;2.63;1.33;;;;;;;20.30;49.29;99734.44;4974850;28;20023;-66
2023/04/10 00:27:38;;;;;;;2.45;1.48;;;;;;;20.31;49.20;99740.56;4975075;28;20488;-66
2023/04/10 00:30:04;;;;;;;3.38;1.80;;;;;;;20.30;48.90;99731.78;4975014;28;20022;-66
2023/04/10 00:32:29;;;;;;;2.03;1.10;;;;;;;20.30;49.10;99725.63;4973800;28;20110;-66
2023/04/10 00:34:55;;;;;;;2.60;1.45;;;;;;;20.30;49.14;99725.63;4975071;28;20101;-66
2023/04/10 00:37:20;;;;;;;2.83;1.38;;;;;;;20.30;49.00;99728.25;4974829;28;20027;-67
2023/04/10 00:39:46;;;;;;;2.40;1.30;;;;;;;20.28;49.13;99730.97;4972904;28;20050;-66
2023/04/10 00:42:11;;;;;;;2.60;1.20;;;;;;;20.26;48.96;99733.72;4974867;28;20031;-66
2023/04/10 00:44:36;;;;;;;2.25;1.50;;;;;;;20.26;49.19;99736.34;4974525;28;20022;-66
2023/04/10 00:47:06;;;;;;;2.30;1.20;;;;;;;20.25;49.24;99728.53;4974794;28;20496;-67
2023/04/10 00:49:32;;;;;;;1.83;1.10;;;;;;;20.24;49.16;99726.81;4974882;28;20098;-66
2023/04/10 00:51:58;;;;;;;2.22;1.27;;;;;;;20.25;48.99;99733.81;4974604;28;20027;-66
2023/04/10 00:54:24;;;;;;;3.05;1.58;;;;;;;20.23;49.26;99741.84;4974426;28;20027;-66
2023/04/10 00:56:49;;;;;;;2.38;1.38;;;;;;;20.23;49.11;99740.97;4974684;28;20073;-67
2023/04/10 00:59:15;;;;;;;2.65;1.30;;;;;;;20.22;49.08;99731.31;4974144;28;20050;-67
2023/04/10 01:01:41;;;;;;;3.03;1.20;;;;;;;20.20;49.20;99733.19;4974360;28;20030;-67
2023/04/10 01:04:07;;;;;;;1.88;1.10;;;;;;;20.20;49.19;99730.56;4974658;28;20038;-66
2023/04/10 01:06:54;;;;;;;2.25;1.30;;;;;;;20.18;49.10;99724.47;4974378;28;20041;-66
2023/04/10 01:09:38;;;;;;;2.67;1.15;;;;;;;20.18;49.06;99724.47;4974039;28;20034;-67
2023/04/10 01:12:18;;;;;;;2.40;1.23;;;;;;;20.16;49.02;99721.03;4955005;29;20038;-66
2023/04/10 01:15:09;;;;;;;1.83;1.25;;;;;;;20.16;49.14;99729.00;4955182;29;20027;-67
2023/04/10 01:18:10;;;;;;;1.85;1.15;;;;;;;20.15;49.00;99735.25;4955302;29;20520;-67
2023/04/10 01:20:40;;;;;;;2.20;1.10;;;;;;;20.14;48.78;99734.38;4962469;28;20106;-67
2023/04/10 01:23:24;;;;;;;2.83;1.50;;;;;;;20.14;49.00;99733.53;4973746;28;20034;-66
2023/04/10 01:25:58;;;;;;;2.08;1.30;;;;;;;20.11;48.99;99732.72;4973430;28;20035;-66
2023/04/10 01:28:23;;;;;;;1.98;1.15;;;;;;;20.09;48.82;99734.63;4974059;28;20082;-67
2023/04/10 01:30:58;;;;;;;2.45;1.30;;;;;;;20.08;48.73;99724.97;4973874;28;20034;-67
2023/04/10 01:33:29;;;;;;;2.78;1.40;;;;;;;20.07;48.76;99728.56;4973289;28;20053;-66
2023/04/10 01:35:57;;;;;;;3.33;1.45;;;;;;;20.04;48.77;99717.28;4973711;28;20548;-67
2023/04/10 01:38:27;;;;;;;2.47;1.38;;;;;;;20.07;48.82;99727.69;4973282;28;20043;-66
2023/04/10 01:40:54;;;;;;;2.58;1.30;;;;;;;20.04;48.87;99718.13;4973612;28;20042;-67
2023/04/10 01:43:21;;;;;;;2.22;1.20;;;;;;;20.04;48.79;99720.75;4973612;28;20415;-66
2023/04/10 01:45:50;;;;;;;2.20;1.17;;;;;;;20.04;49.12;99725.22;4973261;28;20031;-66
2023/04/10 01:48:17;;;;;;;2.85;1.50;;;;;;;20.01;48.84;99723.59;4973642;28;20481;-67
2023/04/10 01:50:44;;;;;;;3.00;1.45;;;;;;;20.00;48.78;99727.16;4973429;28;20073;-67
2023/04/10 01:53:10;;;;;;;2.35;1.23;;;;;;;19.98;48.63;99719.31;4973177;28;20497;-65
2023/04/10 01:55:37;;;;;;;3.08;1.55;;;;;;;19.98;48.81;99726.38;4973526;28;20031;-66
2023/04/10 01:58:03;;;;;;;2.35;1.42;;;;;;;19.98;48.85;99734.34;4973504;28;20157;-66
2023/04/10 02:00:29;;;;;;;2.22;1.20;;;;;;;19.98;48.82;99732.56;4969353;28;20026;-66
2023/04/10 02:02:54;;;;;;;2.42;1.38;;;;;;;19.95;48.94;99734.47;4973377;28;20022;-67
2023/04/10 02:05:23;;;;;;;2.28;1.30;;;;;;;19.93;48.96;99731.03;4973371;28;20027;-66
2023/04/10 02:08:01;;;;;;;2.78;1.40;;;;;;;19.93;49.11;99728.38;4973108;28;20078;-66
2023/04/10 02:10:50;;;;;;;1.98;1.10;;;;;;;19.93;48.66;99728.38;4973163;28;20023;-66
2023/04/10 02:13:20;;;;;;;2.97;1.23;;;;;;;19.92;48.95;99729.31;4973274;28;20031;-67
2023/04/10 02:15:48;;;;;;;2.35;1.33;;;;;;;19.90;48.86;99747.09;4973419;28;20026;-66
2023/04/10 02:18:16;;;;;;;2.05;1.15;;;;;;;19.88;48.46;99733.94;4973029;28;20023;-66
2023/04/10 02:20:42;;;;;;;2.33;1.23;;;;;;;19.86;48.79;99741.94;4972648;28;20110;-66
2023/04/10 02:23:08;;;;;;;2.80;1.40;;;;;;;19.85;48.79;99742.88;4973268;28;20019;-66
2023/04/10 02:25:34;;;;;;;2.92;1.20;;;;;;;19.86;48.88;99736.66;4973319;28;20474;-66
2023/04/10 02:28:04;;;;;;;2.85;1.40;;;;;;;19.83;49.00;99734.19;4973264;28;20037;-65
2023/04/10 02:30:29;;;;;;;2.20;1.20;;;;;;;19.83;48.73;99731.53;4972909;28;20018;-65
2023/04/10 02:32:55;;;;;;;1.77;1.17;;;;;;;19.82;48.86;99729.78;4973251;28;20027;-66
2023/04/10 02:35:21;;;;;;;2.20;1.27;;;;;;;19.81;48.80;99728.09;4972938;28;20019;-67
2023/04/10 02:37:46;;;;;;;2.58;1.30;;;;;;;19.80;48.90;99729.03;4975454;28;20110;-66
2023/04/10 02:40:12;;;;;;;2.42;1.23;;;;;;;19.80;48.96;99731.66;4988477;28;20125;-67
2023/04/10 02:42:37;;;;;;;1.90;1.10;;;;;;;19.79;48.50;99727.31;4976710;28;20031;-67
2023/04/10 02:45:03;;;;;;;2.75;1.48;;;;;;;19.78;48.58;99722.97;4978210;28;20031;-66
2023/04/10 02:47:28;;;;;;;2.33;1.20;;;;;;;19.76;48.89;99726.63;4996403;28;20033;-66
2023/04/10 02:49:53;;;;;;;2.33;1.23;;;;;;;19.77;48.87;99728.34;4995466;28;20030;-66
2023/04/10 02:52:19;;;;;;;2.58;1.40;;;;;;;19.75;48.73;99728.41;4976860;28;20034;-66
2023/04/10 02:54:45;;;;;;;2.20;1.20;;;;;;;19.75;48.77;99722.28;4976842;28;20107;-66
2023/04/10 02:57:10;;;;;;;2.63;1.30;;;;;;;19.73;48.70;99719.69;4976762;28;20097;-65
2023/04/10 02:59:36;;;;;;;1.65;0.90;;;;;;;19.72;48.85;99712.69;4976719;28;20041;-67
2023/04/10 03:02:01;;;;;;;2.22;1.20;;;;;;;19.73;48.54;99717.03;4994094;28;20026;-67
2023/04/10 03:04:27;;;;;;;2.28;1.20;;;;;;;19.71;48.66;99718.94;4979489;28;20034;-66
2023/04/10 03:06:53;;;;;;;1.85;1.00;;;;;;;19.69;48.83;99715.47;4976460;28;20050;-67
2023/04/10 03:09:18;;;;;;;2.40;1.20;;;;;;;19.67;48.74;99718.19;4976602;28;20023;-66
2023/04/10 03:11:44;;;;;;;2.17;1.15;;;;;;;19.69;48.74;99718.13;4991248;28;20065;-65
2023/04/10 03:14:09;;;;;;;2.17;1.33;;;;;;;19.68;48.54;99716.41;4995870;28;20062;-67
2023/04/10 03:16:35;;;;;;;2.53;1.13;;;;;;;19.67;48.63;99720.00;4995864;28;20420;-67
2023/04/10 03:19:00;;;;;;;2.60;1.33;;;;;;;19.66;48.69;99719.13;4995566;28;20037;-66
2023/04/10 03:21:26;;;;;;;2.13;1.20;;;;;;;19.65;48.73;99728.03;4983702;28;20069;-66
2023/04/10 03:23:51;;;;;;;1.92;1.17;;;;;;;19.64;48.84;99725.44;4976366;28;20034;-65
2023/04/10 03:26:17;;;;;;;2.13;1.25;;;;;;;19.63;48.91;99724.63;4976062;28;20456;-66
2023/04/10 03:28:42;;;;;;;2.13;1.15;;;;;;;19.62;48.81;99727.31;4976142;28;20043;-65
2023/04/10 03:31:08;;;;;;;2.00;1.10;;;;;;;19.62;48.74;99732.63;4985701;28;20027;-66
2023/04/10 03:33:34;;;;;;;2.28;1.15;;;;;;;19.61;48.75;99737.06;4995192;28;20037;-66
2023/04/10 03:35:59;;;;;;;2.67;1.38;;;;;;;19.62;48.76;99737.91;4995467;28;20031;-66
2023/04/10 03:38:25;;;;;;;3.10;1.20;;;;;;;19.57;48.70;99733.69;4995031;28;20056;-66
2023/04/10 03:40:50;;;;;;;2.63;1.30;;;;;;;19.57;48.63;99731.06;4986993;28;20065;-66
2023/04/10 03:43:16;;;;;;;2.78;1.25;;;;;;;19.57;48.66;99730.22;4986940;28;20464;-67
2023/04/10 03:45:41;;;;;;;2.53;1.23;;;;;;;19.55;48.90;99725.00;4975833;28;20107;-66
2023/04/10 03:48:07;;;;;;;2.53;1.15;;;;;;;19.54;48.81;99718.00;4975067;28;20129;-66
2023/04/10 03:50:32;;;;;;;2.08;1.20;;;;;;;19.54;48.52;99731.22;4980272;28;20512;-67
2023/04/10 03:52:57;;;;;;;2.35;1.25;;;;;;;19.53;48.55;99732.16;4992036;28;20037;-66
2023/04/10 03:55:23;;;;;;;1.77;1.05;;;;;;;19.55;48.65;99729.41;4994897;28;20455;-67
2023/04/10 03:57:48;;;;;;;1.98;1.02;;;;;;;19.53;48.80;99734.81;4977615;28;20033;-66
2023/04/10 04:00:15;;;;;;;1.85;1.13;;;;;;;19.53;48.93;99734.81;4995208;28;20022;-67
2023/04/10 04:02:41;;;;;;;2.72;1.40;;;;;;;19.54;48.89;99739.16;4984624;28;20034;-67
2023/04/10 04:05:07;;;;;;;2.53;1.15;;;;;;;19.52;48.57;99751.59;4975461;28;20034;-66
2023/04/10 04:07:33;;;;;;;2.47;1.20;;;;;;;19.52;48.67;99748.97;4975569;28;20023;-66
2023/04/10 04:09:59;;;;;;;1.98;1.10;;;;;;;19.50;48.78;99745.53;4975518;28;20038;-66
2023/04/10 04:12:25;;;;;;;2.28;1.33;;;;;;;19.49;48.64;99751.78;4975267;28;20113;-65
2023/04/10 04:14:50;;;;;;;2.47;1.13;;;;;;;19.49;48.57;99743.84;4975268;28;20054;-67
2023/04/10 04:17:16;;;;;;;2.75;1.13;;;;;;;19.49;48.64;99743.84;4975051;28;20038;-66
2023/04/10 04:19:41;;;;;;;2.25;1.35;;;;;;;19.48;48.78;99747.41;4975215;28;20110;-66
2023/04/10 04:22:06;;;;;;;2.13;1.35;;;;;;;19.45;48.73;99748.44;4975222;28;20031;-66
2023/04/10 04:24:32;;;;;;;2.15;1.23;;;;;;;19.45;48.64;99747.56;4975134;28;20037;-67
2023/04/10 04:26:57;;;;;;;2.17;1.40;;;;;;;19.44;48.65;99744.06;4975020;28;20027;-66
2023/04/10 04:29:23;;;;;;;2.08;1.23;;;;;;;19.45;48.53;99742.25;4957781;28;20497;-66
2023/04/10 04:31:48;;;;;;;2.47;1.27;;;;;;;19.45;48.44;99737.84;4974576;28;20512;-66
2023/04/10 04:34:15;;;;;;;1.73;1.02;;;;;;;19.44;48.55;99737.91;4975029;28;20384;-66
2023/04/10 04:36:40;;;;;;;2.85;1.60;;;;;;;19.41;48.56;99743.34;4980722;28;20396;-66
2023/04/10 04:39:06;;;;;;;2.60;1.40;;;;;;;19.41;48.56;99740.69;4994120;28;20049;-67
2023/04/10 04:41:32;;;;;;;2.25;1.35;;;;;;;19.44;48.73;99754.66;4994349;28;20096;-65
2023/04/10 04:43:58;;;;;;;1.45;0.90;;;;;;;19.43;48.62;99752.91;4980238;28;20105;-65
2023/04/10 04:46:24;;;;;;;2.78;1.23;;;;;;;19.40;48.68;99757.50;4974532;28;20022;-67
2023/04/10 04:48:49;;;;;;;3.33;1.52;;;;;;;19.39;48.64;99758.44;4974879;28;20033;-66
2023/04/10 04:51:15;;;;;;;2.63;1.20;;;;;;;19.38;48.79;99756.75;4974739;28;20015;-67
2023/04/10 04:53:40;;;;;;;2.22;1.20;;;;;;;19.37;48.64;99760.31;4974532;28;20027;-66
2023/04/10 04:56:06;;;;;;;2.50;1.30;;;;;;;19.37;48.53;99762.97;4974588;28;20470;-66
2023/04/10 04:58:31;;;;;;;1.65;1.00;;;;;;;19.35;48.79;99765.69;4974494;28;20023;-66
2023/04/10 05:00:57;;;;;;;2.03;1.25;;;;;;;19.37;48.72;99768.25;4973248;28;20551;-66
2023/04/10 05:03:22;;;;;;;2.70;1.20;;;;;;;19.36;48.46;99767.41;4974527;28;20389;-66
2023/04/10 05:05:48;;;;;;;3.38;1.45;;;;;;;19.36;48.43;99769.19;4974422;28;20019;-66
2023/04/10 05:08:13;;;;;;;2.15;1.20;;;;;;;19.38;48.43;99772.63;4974463;28;20037;-66
2023/04/10 05:10:39;;;;;;;2.38;1.10;;;;;;;19.35;48.40;99778.06;4974193;28;20493;-66
2023/04/10 05:13:04;;;;;;;1.80;1.10;;;;;;;19.34;48.41;99771.91;4983214;28;20026;-66
2023/04/10 05:15:30;;;;;;;1.75;1.10;;;;;;;19.35;48.59;99772.75;4993531;28;20081;-66
2023/04/10 05:17:55;;;;;;;2.00;0.90;;;;;;;19.34;48.38;99773.69;4993233;28;20085;-67
2023/04/10 05:20:20;;;;;;;2.08;1.30;;;;;;;19.32;48.66;99779.94;4993632;28;20027;-66
2023/04/10 05:22:46;;;;;;;2.08;1.23;;;;;;;19.31;48.35;99772.94;4993568;28;20023;-65
2023/04/10 05:25:12;;;;;;;3.13;1.50;;;;;;;19.30;48.70;99771.22;4990275;28;20425;-66
2023/04/10 05:27:37;;;;;;;2.38;1.20;;;;;;;19.30;48.33;99776.50;4974487;28;20397;-66
2023/04/10 05:30:03;;;;;;;2.80;1.30;;;;;;;19.30;48.61;99784.44;4973749;28;20400;-65
2023/04/10 05:32:29;;;;;;;2.25;1.20;;;;;;;19.29;48.45;99784.50;4973993;28;20045;-66
2023/04/10 05:34:54;;;;;;;2.08;1.15;;;;;;;19.28;48.50;99788.09;4973940;28;20030;-66
2023/04/10 05:37:20;;;;;;;2.33;1.42;;;;;;;19.29;48.38;99790.69;4973660;28;20015;-66
2023/04/10 05:39:45;;;;;;;2.45;1.40;;;;;;;19.27;48.63;99789.03;4973545;28;20085;-66
2023/04/10 05:42:10;;;;;;;2.08;1.20;;;;;;;19.26;48.35;99798.75;4973794;28;20058;-66
2023/04/10 05:44:36;;;;;;;2.15;1.25;;;;;;;19.26;48.36;99793.44;4973168;28;20485;-66
2023/04/10 05:47:01;;;;;;;1.95;1.30;;;;;;;19.26;48.56;99790.81;4973553;28;20023;-66
2023/04/10 05:49:27;;;;;;;2.50;1.50;;;;;;;19.25;48.46;99789.09;4973772;28;20030;-66
2023/04/10 05:51:52;;;;;;;2.03;1.30;;;;;;;19.25;48.68;99793.53;4973710;28;20030;-66
2023/04/10 05:54:18;;;;;;;2.58;1.27;;;;;;;19.22;48.42;99799.81;4973657;28;20034;-66
2023/04/10 05:56:43;;;;;;;2.72;1.52;;;;;;;19.22;48.62;99789.22;4973580;28;20068;-65
2023/04/10 05:59:09;;;;;;;2.03;1.05;;;;;;;19.22;48.48;99793.69;4973178;28;20043;-66
2023/04/10 06:01:34;;;;;;;2.45;1.58;;;;;;;19.21;48.62;99792.81;4973527;28;20109;-65
2023/04/10 06:04:01;;;;;;;1.83;1.20;;;;;;;19.22;48.35;99801.63;4973518;28;20460;-66
2023/04/10 06:06:26;;;;;;;2.13;1.33;;;;;;;19.22;48.47;99802.47;4973486;28;20054;-66
2023/04/10 06:08:52;;;;;;;3.22;1.63;;;;;;;19.21;48.47;99811.34;4973385;28;20019;-66
2023/04/10 06:11:17;;;;;;;2.97;1.35;;;;;;;19.21;48.64;99816.63;4972931;28;20058;-67
2023/04/10 06:13:43;;;;;;;2.75;1.50;;;;;;;19.21;48.68;99821.91;4972912;28;20026;-67
2023/04/10 06:16:08;;;;;;;2.08;1.20;;;;;;;19.19;48.52;99815.84;4972146;28;20022;-66
2023/04/10 06:18:34;;;;;;;2.53;1.20;;;;;;;19.21;48.40;99816.63;4973197;28;20042;-66
2023/04/10 06:21:00;;;;;;;2.78;1.40;;;;;;;19.20;48.32;99822.84;4973287;28;20109;-66
2023/04/10 06:23:27;;;;;;;2.25;1.30;;;;;;;19.20;48.58;99828.16;4973089;28;20023;-66
2023/04/10 06:25:53;;;;;;;2.00;1.30;;;;;;;19.19;48.37;99826.44;4973150;28;20027;-66
2023/04/10 06:28:19;;;;;;;2.28;1.15;;;;;;;19.18;48.57;99836.16;4972775;28;20046;-66
2023/04/10 06:30:44;;;;;;;2.90;1.50;;;;;;;19.17;48.62;99834.44;4973077;28;20030;-66
2023/04/10 06:33:10;;;;;;;2.75;1.40;;;;;;;19.18;48.62;99830.00;4973180;28;20531;-66
2023/04/10 06:35:36;;;;;;;1.98;1.30;;;;;;;19.15;48.38;99841.59;4973093;28;20019;-66
2023/04/10 06:38:02;;;;;;;2.00;1.20;;;;;;;19.16;48.24;99845.09;4973277;28;20507;-66
2023/04/10 06:40:28;;;;;;;3.00;1.67;;;;;;;19.16;48.54;99855.66;4977706;28;20035;-66
2023/04/10 06:42:54;;;;;;;2.38;1.30;;;;;;;19.15;48.54;99856.59;4972698;28;20074;-66
2023/04/10 06:45:20;;;;;;;2.83;1.20;;;;;;;19.16;48.43;99853.88;4973023;28;20031;-66
2023/04/10 06:47:45;;;;;;;2.60;1.38;;;;;;;19.16;48.22;99853.88;4973027;28;20054;-66
2023/04/10 06:50:11;;;;;;;3.67;1.60;;;;;;;19.15;48.44;99861.88;4972950;28;20030;-66
2023/04/10 06:52:36;;;;;;;2.95;1.45;;;;;;;19.17;48.44;99860.03;4973043;28;20031;-65
2023/04/10 06:55:01;;;;;;;2.50;1.27;;;;;;;19.15;48.51;99867.19;4972899;28;20022;-66
2023/04/10 06:57:27;;;;;;;2.47;1.30;;;;;;;19.16;48.42;99866.25;4972655;28;20033;-67
2023/04/10 06:59:53;;;;;;;2.25;1.30;;;;;;;19.16;48.33;99864.47;4972864;28;20035;-66
2023/04/10 07:02:18;;;;;;;2.42;1.50;;;;;;;19.16;48.21;99876.81;4972810;28;20440;-67
2023/04/10 07:04:44;;;;;;;3.15;1.50;;;;;;;19.16;48.19;99874.19;4972853;28;20035;-67
2023/04/10 07:07:12;;;;;;;2.25;1.42;;;;;;;19.14;48.69;99870.75;4972868;28;20027;-66
2023/04/10 07:09:38;;;;;;;2.78;1.40;;;;;;;19.13;48.30;99864.59;4972988;28;20041;-66
2023/04/10 07:12:03;;;;;;;1.73;1.33;;;;;;;19.14;48.41;99854.88;4972277;28;20031;-66
2023/04/10 07:14:30;;;;;;;2.97;1.55;;;;;;;19.14;48.27;99854.88;4972703;28;20054;-67
2023/04/10 07:16:55;;;;;;;2.65;1.25;;;;;;;19.15;48.26;99857.47;4960627;28;20085;-66
2023/04/10 07:19:21;;;;;;;2.17;1.33;;;;;;;19.14;48.55;99868.13;4991976;28;20042;-67
2023/04/10 07:21:49;;;;;;;3.00;1.80;;;;;;;19.15;48.16;99872.47;4974691;28;20026;-66
2023/04/10 07:24:17;;;;;;;2.33;1.23;;;;;;;19.14;48.45;99884.00;4993556;28;20018;-67
2023/04/10 07:26:44;;;;;;;2.72;1.30;;;;;;;19.14;48.29;99884.81;4995389;28;20057;-68
2023/04/10 07:29:09;;;;;;;3.60;1.50;;;;;;;19.13;48.41;99895.50;4996068;28;20080;-66
2023/04/10 07:31:35;;;;;;;3.00;1.50;;;;;;;19.15;48.44;99898.94;4995856;28;20030;-67
2023/04/10 07:34:01;;;;;;;1.67;1.15;;;;;;;19.14;48.23;99905.16;4995592;28;20035;-67
2023/04/10 07:36:26;;;;;;;2.97;1.63;;;;;;;19.16;48.12;99906.78;4995604;28;20114;-66
2023/04/10 07:38:52;;;;;;;2.65;1.60;;;;;;;19.17;48.46;99907.63;4995321;28;20129;-65
2023/04/10 07:41:17;;;;;;;2.53;1.42;;;;;;;19.15;48.30;99909.50;4995104;28;20034;-66
2023/04/10 07:43:43;;;;;;;2.53;1.52;;;;;;;19.18;48.36;99912.03;4983621;28;20031;-65
2023/04/10 07:46:08;;;;;;;3.20;1.60;;;;;;;19.16;47.99;99906.78;4975950;28;20058;-67
2023/04/10 07:48:34;;;;;;;2.33;1.40;;;;;;;19.17;48.23;99907.63;4975962;28;20035;-67
2023/04/10 07:50:59;;;;;;;2.97;1.60;;;;;;;19.16;48.12;99911.22;4975754;28;20026;-65
2023/04/10 07:53:25;;;;;;;3.47;1.65;;;;;;;19.17;48.26;99907.63;4975764;28;20481;-67
2023/04/10 07:55:50;;;;;;;3.30;1.63;;;;;;;19.16;48.38;99916.50;4976461;28;20151;-65
2023/04/10 07:58:15;;;;;;;3.25;1.60;;;;;;;19.17;48.28;99915.56;4975597;28;20030;-67
2023/04/10 08:00:41;;;;;;;3.55;2.00;;;;;;;19.19;48.02;99924.31;4975459;28;20034;-66
2023/04/10 08:03:06;;;;;;;3.28;1.90;;;;;;;19.16;48.18;99927.09;4975722;28;20019;-66
2023/04/10 08:05:32;;;;;;;3.50;1.90;;;;;;;19.19;47.99;99932.25;4975549;28;20466;-65
2023/04/10 08:07:59;;;;;;;3.85;1.90;;;;;;;19.19;47.97;99932.25;4975436;28;20038;-66
2023/04/10 08:10:24;;;;;;;3.63;1.88;;;;;;;19.18;48.03;99941.13;4974959;28;20030;-67
2023/04/10 08:12:49;;;;;;;3.55;1.80;;;;;;;19.18;48.09;99939.31;4975509;28;20050;-66
2023/04/10 08:15:16;;;;;;;3.10;1.58;;;;;;;19.17;48.23;99942.91;4975470;28;20178;-67
2023/04/10 08:17:42;;;;;;;2.58;1.77;;;;;;;19.17;48.08;99958.78;4975308;28;20065;-66
2023/04/10 08:20:09;;;;;;;3.80;1.73;;;;;;;19.19;47.97;99964.00;4975269;28;20120;-66
2023/04/10 08:22:34;;;;;;;3.78;2.20;;;;;;;19.18;48.37;99972.88;4957760;28;20399;-67
2023/04/10 08:25:00;;;;;;;4.25;1.90;;;;;;;19.18;48.15;99972.88;4974859;28;20113;-67
2023/04/10 08:27:25;;;;;;;3.72;1.85;;;;;;;19.20;48.28;99981.59;4975108;28;20031;-66
2023/04/10 08:29:50;;;;;;;3.08;1.80;;;;;;;19.22;47.98;99978.88;4982237;28;20381;-65
2023/04/10 08:32:16;;;;;;;2.83;1.90;;;;;;;19.23;48.02;99980.59;4977098;28;20022;-66
2023/04/10 08:34:41;;;;;;;4.03;1.98;;;;;;;19.24;48.28;99983.16;4994445;28;20030;-67
2023/04/10 08:37:08;;;;;;;2.67;1.67;;;;;;;19.24;48.20;99983.16;4994488;28;20026;-66
2023/04/10 08:39:37;;;;;;;3.95;2.30;;;;;;;19.25;48.29;99989.31;4993840;28;20054;-65
2023/04/10 08:42:03;;;;;;;4.22;2.10;;;;;;;19.24;48.24;99985.81;4994341;28;20560;-68
2023/04/10 08:44:29;;;;;;;3.60;2.10;;;;;;;19.25;48.31;99984.88;4976318;28;20098;-66
2023/04/10 08:46:57;;;;;;;4.00;1.90;;;;;;;19.26;48.32;99989.25;4986123;28;20030;-66
2023/04/10 08:49:30;;;;;;;4.00;2.30;;;;;;;19.26;48.32;99986.59;4994157;28;20089;-66
2023/04/10 08:51:57;;;;;;;4.00;2.15;;;;;;;19.30;48.23;99988.19;4994304;28;20030;-67
2023/04/10 08:54:32;;;;;;;2.92;1.85;;;;;;;19.30;48.29;99982.91;4993767;28;20022;-65
2023/04/10 08:57:00;;;;;;;3.33;2.15;;;;;;;19.31;47.87;99984.59;4986977;28;20019;-67
2023/04/10 08:59:28;;;;;;;3.53;1.98;;;;;;;19.32;48.25;99981.03;4974523;28;20034;-66
2023/04/10 09:01:55;;;;;;;3.88;2.55;;;;;;;19.32;48.20;99980.16;4974037;28;20397;-65
2023/04/10 09:04:23;;;;;;;3.40;2.17;;;;;;;19.32;48.15;99981.03;4974465;28;20027;-66
2023/04/10 09:06:48;;;;;;;3.28;1.95;;;;;;;19.35;48.25;99976.50;4973824;28;20026;-66
2023/04/10 09:09:13;;;;;;;4.07;2.28;;;;;;;19.36;48.19;99981.75;4974435;28;20034;-66
2023/04/10 09:11:51;;;;;;;3.78;2.25;;;;;;;19.35;48.19;99973.88;4974324;28;20022;-66
2023/04/10 09:14:24;;;;;;;3.83;2.20;;;;;;;19.35;48.11;99974.72;4974399;28;20042;-65
2023/04/10 09:16:51;;;;;;;3.92;2.28;;;;;;;19.39;48.02;99970.16;4974217;28;20440;-67
2023/04/10 09:19:30;;;;;;;4.18;2.45;;;;;;;19.44;48.09;99973.44;4973935;28;20035;-65
2023/04/10 09:21:56;;;;;;;4.38;2.55;;;;;;;19.44;47.87;99974.31;4990039;28;20053;-66
2023/04/10 09:24:23;;;;;;;4.85;2.85;;;;;;;19.44;47.99;99973.44;4993459;28;20077;-65
2023/04/10 09:26:48;;;;;;;5.15;3.10;;;;;;;19.49;48.13;99971.44;4993561;28;20027;-65
2023/04/10 09:29:15;;;;;;;4.00;2.97;;;;;;;19.49;47.82;99976.75;4993264;28;20085;-66
2023/04/10 09:31:42;;;;;;;5.22;3.40;;;;;;;19.53;48.16;99983.63;4992844;28;20068;-66
2023/04/10 09:34:18;;;;;;;6.68;3.33;;;;;;;19.55;48.14;99986.19;4981835;28;20485;-66
2023/04/10 09:36:53;;;;;;;6.55;3.70;;;;;;;19.56;48.00;99994.06;4973584;28;20030;-67
2023/04/10 09:39:19;;;;;;;6.30;3.70;;;;;;;19.58;47.83;99991.34;4973415;28;20501;-66
2023/04/10 09:41:52;;;;;;;6.32;3.90;;;;;;;19.58;47.88;100008.06;4973703;28;20081;-66
2023/04/10 09:44:28;;;;;;;5.82;4.00;;;;;;;19.59;48.04;100008.94;4973833;28;20053;-66
2023/04/10 09:46:54;;;;;;;6.35;4.32;;;;;;;19.61;47.96;100003.56;4954147;28;20406;-67
2023/04/10 09:49:19;;;;;;;6.63;4.10;;;;;;;19.61;47.80;99996.47;4954688;29;20023;-66
2023/04/10 09:51:46;;;;;;;7.40;4.05;;;;;;;19.63;47.84;100001.69;4954003;29;20441;-67
2023/04/10 09:54:11;;;;;;;6.28;4.05;;;;;;;19.63;48.08;100004.34;4954435;29;20023;-65
2023/04/10 09:56:39;;;;;;;6.47;4.20;;;;;;;19.62;47.80;100002.63;4954227;29;20496;-66
2023/04/10 09:59:05;;;;;;;7.28;4.40;;;;;;;19.63;47.76;99993.75;4954252;29;20097;-65
2023/04/10 10:01:33;;;;;;;6.75;4.50;;;;;;;19.64;48.02;99996.34;4954110;29;20103;-66
2023/04/10 10:04:03;;;;;;;6.10;4.35;;;;;;;19.67;47.70;99984.75;4954230;29;20549;-67
2023/04/10 10:06:32;;;;;;;6.50;4.35;;;;;;;19.65;47.73;99984.81;4953873;29;20020;-65
2023/04/10 10:09:02;;;;;;;8.38;4.57;;;;;;;19.67;47.78;99984.75;4962757;28;20102;-65
2023/04/10 10:11:31;;;;;;;6.88;4.53;;;;;;;19.69;48.00;99977.59;4973411;28;20544;-66
2023/04/10 10:13:59;;;;;;;8.20;4.60;;;;;;;19.70;48.10;99984.59;4973237;28;20042;-66
2023/04/10 10:16:42;;;;;;;7.68;4.78;;;;;;;19.70;47.82;99979.28;4973217;28;20027;-67
2023/04/10 10:19:20;;;;;;;7.40;5.28;;;;;;;19.70;47.65;99979.28;4971469;28;20497;-66
2023/04/10 10:21:46;;;;;;;7.00;5.18;;;;;;;19.72;47.78;99988.03;4973241;28;20058;-66
2023/04/10 10:24:12;;;;;;;7.75;5.13;;;;;;;19.73;47.74;99982.66;4973232;28;20019;-66
2023/04/10 10:26:39;;;;;;;6.53;4.47;;;;;;;19.76;48.09;99979.00;4973111;28;20019;-66
2023/04/10 10:29:09;;;;;;;6.82;5.15;;;;;;;19.77;47.95;99970.16;4973001;28;20436;-66
2023/04/10 10:31:36;;;;;;;7.13;4.93;;;;;;;19.78;47.97;99974.50;4973073;28;20119;-66
2023/04/10 10:34:04;;;;;;;6.45;4.15;;;;;;;19.79;47.80;99978.88;4972868;28;20049;-67
2023/04/10 10:36:30;;;;;;;6.10;4.50;;;;;;;19.81;47.84;99979.66;4972888;28;20400;-66
2023/04/10 10:39:08;;;;;;;6.47;4.45;;;;;;;19.82;47.91;99985.81;4972896;28;20054;-65
2023/04/10 10:41:41;;;;;;;8.63;4.82;;;;;;;19.83;47.79;99985.75;4972926;28;20058;-65
2023/04/10 10:44:36;;;;;;;7.30;4.25;;;;;;;19.85;47.92;99993.59;4973073;28;20042;-65
2023/04/10 10:47:18;;;;;;;7.45;4.65;;;;;;;19.86;47.75;99990.03;4973225;28;20046;-66
2023/04/10 10:50:01;;;;;;;6.43;4.40;;;;;;;19.86;48.14;100001.47;4972609;28;20035;-66
2023/04/10 10:53:00;;;;;;;6.55;4.50;;;;;;;19.88;48.04;100008.47;4973024;28;20446;-67
2023/04/10 10:55:30;;;;;;;6.50;3.78;;;;;;;19.88;48.14;100004.06;4894585;29;20051;-66
2023/04/10 10:57:59;;;;;;;6.80;4.20;;;;;;;19.89;48.00;99999.63;4894326;29;20116;-66
2023/04/10 11:00:26;;;;;;;7.22;4.63;;;;;;;19.91;47.83;99992.47;4897606;29;20040;-66
2023/04/10 11:03:06;;;;;;;7.38;4.10;;;;;;;19.91;48.18;99982.72;4898045;29;20495;-66
2023/04/10 11:05:48;;;;;;;5.68;4.18;;;;;;;19.91;47.97;99976.56;4898031;29;20120;-66
2023/04/10 11:08:14;;;;;;;7.75;4.78;;;;;;;19.93;48.11;99964.09;4898229;29;20115;-66
2023/04/10 11:11:02;;;;;;;6.88;4.20;;;;;;;19.95;47.94;99956.97;4897809;29;20188;-66
2023/04/10 11:13:28;;;;;;;6.50;4.22;;;;;;;19.96;48.07;99948.09;4897951;29;20028;-66
2023/04/10 11:15:58;;;;;;;6.97;4.30;;;;;;;19.96;48.07;99948.09;4897910;29;20060;-65
2023/04/10 11:18:45;;;;;;;5.82;4.10;;;;;;;19.97;48.33;99949.81;4897423;29;20052;-66
2023/04/10 11:21:18;;;;;;;7.07;4.30;;;;;;;19.98;47.93;99956.81;4897614;29;20035;-65
2023/04/10 11:23:49;;;;;;;7.30;4.22;;;;;;;19.98;48.18;99956.81;4897761;29;20032;-66
2023/04/10 11:26:38;;;;;;;7.30;4.03;;;;;;;20.00;47.96;99960.25;4898014;29;20119;-66
2023/04/10 11:29:18;;;;;;;6.47;3.90;;;;;;;19.99;48.13;99958.53;4897767;29;20084;-66
2023/04/10 11:31:46;;;;;;;5.95;3.90;;;;;;;20.01;48.37;99955.81;4942904;28;20378;-66
2023/04/10 11:34:11;;;;;;;5.88;3.80;;;;;;;20.01;48.11;99946.09;4976142;28;20042;-65
2023/04/10 11:36:39;;;;;;;6.10;3.72;;;;;;;20.03;48.08;99944.22;4976645;28;20035;-67